Time;durP1;ratioP1;P1;durP2;ratioP2;P2;SDS_P1;SDS_P2;PMS_P1;PMS_P2;Temp;Humidity;BMP_temperature;BMP_pressure;BME280_temperature;BME280_humidity;BME280_pressure;Samples;Min_cycle;Max_cycle;Signal;HPM_P1;HPM_P2
2023/08/25 00:00:37;;;;;;;13.98;11.52;;;20.20;99.90;;;;;;5066707;28;20064;-58
2023/08/25 00:03:04;;;;;;;13.45;11.18;;;20.20;99.90;;;;;;5063467;28;20045;-56
2023/08/25 00:05:29;;;;;;;13.93;12.07;;;20.20;99.90;;;;;;5073245;28;20079;-56
2023/08/25 00:07:55;;;;;;;15.02;11.38;;;20.10;99.90;;;;;;5063729;28;20063;-57
2023/08/25 00:10:22;;;;;;;13.13;11.60;;;20.10;99.90;;;;;;5067859;28;20040;-56
2023/08/25 00:12:49;;;;;;;13.18;11.82;;;20.10;99.90;;;;;;5074191;28;20045;-56
2023/08/25 00:15:15;;;;;;;15.32;12.13;;;20.10;99.90;;;;;;5070965;28;20090;-56
2023/08/25 00:17:40;;;;;;;16.23;12.18;;;20.00;99.90;;;;;;5069171;28;20074;-57
2023/08/25 00:20:10;;;;;;;16.10;12.77;;;20.00;99.90;;;;;;5065852;28;20033;-57
2023/08/25 00:22:36;;;;;;;13.70;12.35;;;20.00;99.90;;;;;;5064493;28;20474;-57
2023/08/25 00:25:03;;;;;;;16.73;13.00;;;20.00;99.90;;;;;;5070370;28;20058;-56
2023/08/25 00:27:28;;;;;;;17.65;13.65;;;19.90;99.90;;;;;;5067298;28;20096;-56
2023/08/25 00:29:54;;;;;;;16.55;13.57;;;19.90;99.90;;;;;;5068774;28;20107;-56
2023/08/25 00:32:20;;;;;;;16.85;14.20;;;19.90;99.90;;;;;;5061999;28;20512;-57
2023/08/25 00:34:45;;;;;;;18.02;14.65;;;19.90;99.90;;;;;;5070277;28;20048;-56
2023/08/25 00:37:11;;;;;;;16.02;14.35;;;19.90;99.90;;;;;;5063660;28;20050;-57
2023/08/25 00:39:38;;;;;;;15.45;13.85;;;19.80;99.90;;;;;;5066389;28;20127;-56
2023/08/25 00:42:04;;;;;;;17.50;13.80;;;19.80;99.90;;;;;;5067203;28;20045;-56
2023/08/25 00:44:30;;;;;;;17.13;14.80;;;19.80;99.90;;;;;;5059019;28;20041;-59
2023/08/25 00:46:55;;;;;;;17.00;14.52;;;19.80;99.90;;;;;;5071455;28;20047;-57
2023/08/25 00:49:22;;;;;;;16.80;15.10;;;19.90;99.90;;;;;;5064142;28;20060;-57
2023/08/25 00:51:49;;;;;;;21.23;16.10;;;19.90;99.90;;;;;;5066003;28;20045;-57
2023/08/25 00:54:15;;;;;;;21.67;16.55;;;19.90;99.90;;;;;;5072373;28;20183;-56
2023/08/25 00:56:42;;;;;;;17.98;16.13;;;19.90;99.90;;;;;;5066266;28;20045;-56
2023/08/25 00:59:08;;;;;;;20.05;16.92;;;19.90;99.90;;;;;;5062562;28;20093;-56
2023/08/25 01:01:35;;;;;;;20.17;17.58;;;19.90;99.90;;;;;;5067599;28;20049;-56
2023/08/25 01:04:00;;;;;;;20.83;17.30;;;19.90;99.90;;;;;;5068941;28;20048;-56
2023/08/25 01:06:26;;;;;;;21.15;18.10;;;19.90;99.90;;;;;;5076038;28;20537;-57
2023/08/25 01:08:53;;;;;;;19.98;17.80;;;19.90;99.90;;;;;;5085001;28;20051;-56
2023/08/25 01:11:46;;;;;;;20.38;18.27;;;20.00;99.90;;;;;;5065169;28;20081;-56
2023/08/25 01:14:50;;;;;;;23.95;18.60;;;20.00;99.90;;;;;;5073011;28;20097;-56
2023/08/25 01:17:43;;;;;;;22.20;19.45;;;20.00;99.90;;;;;;5076454;28;20047;-56
2023/08/25 01:20:09;;;;;;;21.70;19.45;;;20.00;99.90;;;;;;5063747;28;20064;-56
2023/08/25 01:22:47;;;;;;;23.50;19.50;;;20.00;99.90;;;;;;5061300;28;20067;-56
2023/08/25 01:25:26;;;;;;;21.70;19.55;;;20.00;99.90;;;;;;5066832;28;20049;-56
2023/08/25 01:27:55;;;;;;;22.73;20.05;;;20.00;99.90;;;;;;5064113;28;20053;-56
2023/08/25 01:30:24;;;;;;;22.15;19.83;;;20.00;99.90;;;;;;5067483;28;20047;-56
2023/08/25 01:32:53;;;;;;;24.92;21.08;;;20.00;99.90;;;;;;5061990;28;20041;-56
2023/08/25 01:35:28;;;;;;;25.95;21.92;;;20.10;99.90;;;;;;5074304;28;20693;-57
2023/08/25 01:38:04;;;;;;;24.10;21.50;;;20.00;99.90;;;;;;5064031;28;20049;-56
2023/08/25 01:40:37;;;;;;;26.13;22.30;;;20.00;99.90;;;;;;5068966;28;20302;-56
2023/08/25 01:43:09;;;;;;;24.63;20.88;;;20.00;99.90;;;;;;5066540;28;20056;-56
2023/08/25 01:45:36;;;;;;;24.85;22.25;;;20.10;99.90;;;;;;5065208;28;20432;-56
2023/08/25 01:48:05;;;;;;;24.15;21.55;;;20.10;99.90;;;;;;5062423;28;20041;-56
2023/08/25 01:50:35;;;;;;;24.83;22.13;;;20.10;99.90;;;;;;5062737;28;20551;-55
2023/08/25 01:53:02;;;;;;;24.63;21.95;;;20.10;99.90;;;;;;5097567;28;20056;-56
2023/08/25 01:55:28;;;;;;;25.17;21.70;;;20.10;99.90;;;;;;5070919;28;20081;-56
2023/08/25 01:57:54;;;;;;;27.42;22.83;;;20.10;99.90;;;;;;5061942;28;20413;-56
2023/08/25 02:00:20;;;;;;;25.88;22.63;;;20.10;99.90;;;;;;5065755;28;20417;-56
2023/08/25 02:02:45;;;;;;;27.73;23.48;;;20.10;99.90;;;;;;5062662;28;20108;-56
2023/08/25 02:05:11;;;;;;;27.75;23.80;;;20.00;99.90;;;;;;5069054;28;20048;-56
2023/08/25 02:07:37;;;;;;;28.15;23.92;;;20.00;99.90;;;;;;5065881;28;20111;-55
2023/08/25 02:10:04;;;;;;;27.05;23.98;;;20.00;99.90;;;;;;5071419;28;20041;-56
2023/08/25 02:12:29;;;;;;;28.90;24.55;;;20.00;99.90;;;;;;5069670;28;20037;-56
2023/08/25 02:14:55;;;;;;;29.40;24.98;;;20.00;99.90;;;;;;5072139;28;20036;-57
2023/08/25 02:17:21;;;;;;;27.08;24.08;;;20.00;99.90;;;;;;5070484;28;20514;-57
2023/08/25 02:19:46;;;;;;;26.38;23.42;;;19.90;99.90;;;;;;5066611;28;20045;-56
2023/08/25 02:22:12;;;;;;;29.25;24.38;;;19.90;99.90;;;;;;5063747;28;20071;-56
2023/08/25 02:24:38;;;;;;;26.50;23.70;;;19.90;99.90;;;;;;5060839;28;20041;-55
2023/08/25 02:27:04;;;;;;;30.02;25.23;;;19.90;99.90;;;;;;5055243;28;20052;-56
2023/08/25 02:29:29;;;;;;;31.85;26.25;;;19.90;99.90;;;;;;5057271;28;20033;-57
2023/08/25 02:31:55;;;;;;;28.35;25.35;;;19.80;99.90;;;;;;5062825;28;20052;-56
2023/08/25 02:34:22;;;;;;;26.95;24.15;;;19.80;99.90;;;;;;5064833;28;20088;-56
2023/08/25 02:36:47;;;;;;;32.78;24.92;;;19.80;99.90;;;;;;5066292;28;20094;-56
2023/08/25 02:39:13;;;;;;;29.40;25.38;;;19.80;99.90;;;;;;5066511;28;20040;-56
2023/08/25 02:41:39;;;;;;;32.13;26.80;;;19.70;99.90;;;;;;5059152;28;20037;-56
2023/08/25 02:44:04;;;;;;;31.13;27.67;;;19.70;99.90;;;;;;5070037;28;20100;-56
2023/08/25 02:46:30;;;;;;;30.88;27.58;;;19.70;99.90;;;;;;5062613;28;20033;-56
2023/08/25 02:48:56;;;;;;;33.60;27.88;;;19.70;99.90;;;;;;5061569;28;20787;-56
2023/08/25 02:51:21;;;;;;;34.88;28.92;;;19.70;99.90;;;;;;5072305;28;20045;-57
2023/08/25 02:53:47;;;;;;;33.38;29.50;;;19.70;99.90;;;;;;5064704;28;20079;-55
2023/08/25 02:56:13;;;;;;;35.65;29.77;;;19.60;99.90;;;;;;5060222;28;20067;-56
2023/08/25 02:58:38;;;;;;;34.60;29.83;;;19.60;99.90;;;;;;5064967;28;20505;-56
2023/08/25 03:01:13;;;;;;;35.60;29.52;;;19.60;99.90;;;;;;5059225;28;20417;-57
2023/08/25 03:03:39;;;;;;;37.27;29.10;;;19.60;99.90;;;;;;5062772;28;20116;-56
2023/08/25 03:06:05;;;;;;;35.15;30.60;;;19.50;99.90;;;;;;5058641;28;20061;-59
2023/08/25 03:08:31;;;;;;;36.22;29.98;;;19.50;99.90;;;;;;5065887;28;20078;-57
2023/08/25 03:10:57;;;;;;;38.92;30.27;;;19.50;99.90;;;;;;5060213;28;20052;-56
2023/08/25 03:13:22;;;;;;;36.20;30.50;;;19.50;99.90;;;;;;5071381;28;20121;-56
2023/08/25 03:15:50;;;;;;;42.75;32.85;;;19.40;99.90;;;;;;5062090;28;20052;-56
2023/08/25 03:18:16;;;;;;;41.83;32.25;;;19.40;99.90;;;;;;5065217;28;20044;-57
2023/08/25 03:20:42;;;;;;;39.80;33.08;;;19.40;99.90;;;;;;5068306;28;20037;-56
2023/08/25 03:23:07;;;;;;;41.50;32.10;;;19.40;99.90;;;;;;5064904;28;20041;-57
2023/08/25 03:25:37;;;;;;;45.60;33.67;;;19.40;99.90;;;;;;5070174;28;20470;-56
2023/08/25 03:28:03;;;;;;;44.70;35.42;;;19.30;99.90;;;;;;5063911;28;20464;-56
2023/08/25 03:30:29;;;;;;;42.33;35.15;;;19.40;99.90;;;;;;5074548;28;20033;-57
2023/08/25 03:32:55;;;;;;;41.60;34.47;;;19.30;99.90;;;;;;5071811;28;20092;-55
2023/08/25 03:35:20;;;;;;;41.63;33.47;;;19.30;99.90;;;;;;5063702;28;20043;-56
2023/08/25 03:37:46;;;;;;;47.20;35.38;;;19.20;99.90;;;;;;5068289;28;20036;-56
2023/08/25 03:40:12;;;;;;;50.40;35.17;;;19.30;99.90;;;;;;5065173;28;20382;-56
2023/08/25 03:42:37;;;;;;;44.20;35.15;;;19.30;99.90;;;;;;5071749;28;20101;-56
2023/08/25 03:45:05;;;;;;;45.50;35.70;;;19.20;99.90;;;;;;5068074;28;20505;-56
2023/08/25 03:47:31;;;;;;;46.25;35.60;;;19.20;99.90;;;;;;5060306;28;20071;-56
2023/08/25 03:49:57;;;;;;;43.38;34.67;;;19.20;99.90;;;;;;5067048;28;20051;-56
2023/08/25 03:52:24;;;;;;;39.28;31.20;;;19.20;99.90;;;;;;5070344;28;20053;-57
2023/08/25 03:54:49;;;;;;;43.78;33.75;;;19.10;99.90;;;;;;5074427;28;20521;-57
2023/08/25 03:57:15;;;;;;;39.10;32.03;;;19.10;99.90;;;;;;5057115;28;20041;-56
2023/08/25 03:59:41;;;;;;;41.10;32.78;;;19.10;99.90;;;;;;5063343;28;20044;-55
2023/08/25 04:02:06;;;;;;;45.40;33.88;;;19.10;99.90;;;;;;5067171;28;20044;-56
2023/08/25 04:04:32;;;;;;;40.47;32.80;;;19.10;99.90;;;;;;5060101;28;20044;-56
2023/08/25 04:06:58;;;;;;;42.30;32.20;;;19.00;99.90;;;;;;5058225;28;20051;-56
2023/08/25 04:09:24;;;;;;;41.95;34.13;;;19.10;99.90;;;;;;5059619;28;20048;-56
2023/08/25 04:11:50;;;;;;;39.83;32.67;;;19.00;99.90;;;;;;5067093;28;20102;-56
2023/08/25 04:14:15;;;;;;;44.35;33.67;;;19.00;99.90;;;;;;5072477;28;20049;-56
2023/08/25 04:16:41;;;;;;;42.58;34.75;;;19.00;99.90;;;;;;5069833;28;20033;-56
2023/08/25 04:19:07;;;;;;;48.72;34.38;;;19.00;99.90;;;;;;5069515;28;20069;-56
2023/08/25 04:21:32;;;;;;;41.08;34.35;;;18.90;99.90;;;;;;5063280;28;20045;-56
2023/08/25 04:23:58;;;;;;;45.05;34.47;;;18.90;99.90;;;;;;5055395;28;20037;-55
2023/08/25 04:26:24;;;;;;;47.72;34.83;;;18.90;99.90;;;;;;5061776;28;20051;-56
2023/08/25 04:28:49;;;;;;;48.75;35.28;;;18.90;99.90;;;;;;5066444;28;20091;-55
2023/08/25 04:31:15;;;;;;;49.65;36.95;;;18.90;99.90;;;;;;5069742;28;20030;-56
2023/08/25 04:33:41;;;;;;;50.17;34.53;;;18.90;99.90;;;;;;5074190;28;20036;-56
2023/08/25 04:36:06;;;;;;;49.55;37.20;;;18.80;99.90;;;;;;5056967;28;20060;-56
2023/08/25 04:38:32;;;;;;;45.95;35.92;;;18.80;99.90;;;;;;5070623;28;20049;-56
2023/08/25 04:40:58;;;;;;;42.50;34.83;;;18.80;99.90;;;;;;5070529;28;20550;-57
2023/08/25 04:43:24;;;;;;;50.75;36.30;;;18.80;99.90;;;;;;5065028;28;20485;-56
2023/08/25 04:45:50;;;;;;;52.13;36.10;;;18.80;99.90;;;;;;5067614;28;20058;-56
2023/08/25 04:48:15;;;;;;;48.67;35.83;;;18.80;99.90;;;;;;5076302;28;20555;-56
2023/08/25 04:50:41;;;;;;;50.63;35.58;;;18.80;99.90;;;;;;5067148;28;20116;-57
2023/08/25 04:53:07;;;;;;;45.88;36.58;;;18.80;99.90;;;;;;5065766;28;20045;-56
2023/08/25 04:55:33;;;;;;;42.95;34.33;;;18.80;99.90;;;;;;5070856;28;20043;-56
2023/08/25 04:57:58;;;;;;;49.95;36.40;;;18.70;99.90;;;;;;5068152;28;20080;-55
2023/08/25 05:00:24;;;;;;;52.53;36.42;;;18.80;99.90;;;;;;5061085;28;20055;-56
2023/08/25 05:02:50;;;;;;;45.60;34.25;;;18.70;99.90;;;;;;5069429;28;20064;-55
2023/08/25 05:05:17;;;;;;;51.85;37.67;;;18.70;99.90;;;;;;5071747;28;20098;-56
2023/08/25 05:07:43;;;;;;;49.72;34.80;;;18.70;99.90;;;;;;5066956;28;20044;-57
2023/08/25 05:10:09;;;;;;;47.95;36.10;;;18.80;99.90;;;;;;5068454;28;20127;-56
2023/08/25 05:12:35;;;;;;;49.03;36.60;;;18.80;99.90;;;;;;5071071;28;20123;-55
2023/08/25 05:15:02;;;;;;;42.03;31.15;;;18.80;99.90;;;;;;5069163;28;20045;-56
2023/08/25 05:17:28;;;;;;;52.47;38.53;;;18.80;99.90;;;;;;5069884;28;20464;-55
2023/08/25 05:19:53;;;;;;;49.90;38.08;;;18.80;99.90;;;;;;5071399;28;20048;-55
2023/08/25 05:22:19;;;;;;;55.03;38.85;;;18.80;99.90;;;;;;5074015;28;20102;-57
2023/08/25 05:24:45;;;;;;;48.55;37.90;;;18.80;99.90;;;;;;5068600;28;20398;-56
2023/08/25 05:27:10;;;;;;;64.20;40.55;;;18.80;99.90;;;;;;5068092;28;20068;-57
2023/08/25 05:29:36;;;;;;;54.42;38.80;;;18.90;99.90;;;;;;5062614;28;20041;-56
2023/08/25 05:32:02;;;;;;;53.78;36.50;;;18.90;99.90;;;;;;5075651;28;20035;-56
2023/08/25 05:34:28;;;;;;;53.88;38.78;;;18.90;99.90;;;;;;5072761;28;20056;-56
2023/08/25 05:36:54;;;;;;;61.10;41.20;;;19.00;99.90;;;;;;5066819;28;20043;-57
2023/08/25 05:39:21;;;;;;;55.17;40.63;;;19.10;99.90;;;;;;5072307;28;20239;-57
2023/08/25 05:41:47;;;;;;;53.90;39.60;;;19.10;99.90;;;;;;5074315;28;20042;-56
2023/08/25 05:44:13;;;;;;;53.95;39.08;;;19.20;99.90;;;;;;5065249;28;20087;-56
2023/08/25 05:46:40;;;;;;;57.70;41.15;;;19.20;99.90;;;;;;5068774;28;20049;-58
2023/08/25 05:49:06;;;;;;;49.65;37.97;;;19.20;99.90;;;;;;5064607;28;20064;-57
2023/08/25 05:51:31;;;;;;;56.53;39.70;;;19.30;99.90;;;;;;5064283;28;20052;-57
2023/08/25 05:53:57;;;;;;;51.22;38.80;;;19.30;99.90;;;;;;5068891;28;20639;-57
2023/08/25 05:56:23;;;;;;;51.88;39.15;;;19.30;99.90;;;;;;5068989;28;20045;-57
2023/08/25 05:58:48;;;;;;;51.40;39.03;;;19.30;99.90;;;;;;5069885;28;20048;-57
2023/08/25 06:01:15;;;;;;;54.35;39.42;;;19.40;99.90;;;;;;5059456;28;20045;-58
2023/08/25 06:03:40;;;;;;;50.67;40.25;;;19.40;99.90;;;;;;5064107;28;20048;-58
2023/08/25 06:06:06;;;;;;;53.70;39.00;;;19.40;99.90;;;;;;5062764;28;20479;-58
2023/08/25 06:08:32;;;;;;;54.75;39.30;;;19.50;99.90;;;;;;5070257;28;20072;-57
2023/08/25 06:10:58;;;;;;;54.78;40.20;;;19.50;99.90;;;;;;5066889;28;20047;-57
2023/08/25 06:13:24;;;;;;;55.67;39.65;;;19.50;99.90;;;;;;5067044;28;20044;-57
2023/08/25 06:15:50;;;;;;;61.25;41.55;;;19.60;99.90;;;;;;5059978;28;20049;-57
2023/08/25 06:18:16;;;;;;;53.10;38.38;;;19.60;99.90;;;;;;5061207;28;20061;-57
2023/08/25 06:20:42;;;;;;;50.72;39.35;;;19.60;99.90;;;;;;5067051;28;20032;-57
2023/08/25 06:23:08;;;;;;;54.17;40.17;;;19.60;99.90;;;;;;5063585;28;20041;-57
2023/08/25 06:25:34;;;;;;;53.88;41.35;;;19.60;99.90;;;;;;5066762;28;20041;-58
2023/08/25 06:28:00;;;;;;;60.78;41.83;;;19.60;99.90;;;;;;5063059;28;20051;-57
2023/08/25 06:30:35;;;;;;;50.63;37.80;;;19.60;99.90;;;;;;5067791;28;20116;-56
2023/08/25 06:33:01;;;;;;;;;;;19.60;99.90;;;;;;5066345;28;20045;-57
2023/08/25 06:35:27;;;;;;;66.03;43.90;;;19.60;99.90;;;;;;5070498;28;19939;-57
2023/08/25 06:37:53;;;;;;;66.22;45.10;;;19.50;99.90;;;;;;5066144;28;20041;-57
2023/08/25 06:40:19;;;;;;;61.90;43.00;;;19.40;99.90;;;;;;5059079;28;20087;-57
2023/08/25 06:42:44;;;;;;;59.20;42.60;;;19.40;99.90;;;;;;5075255;28;20040;-57
2023/08/25 06:45:11;;;;;;;62.08;41.95;;;19.40;99.90;;;;;;5069840;28;20051;-57
2023/08/25 06:47:38;;;;;;;60.10;41.45;;;19.40;99.90;;;;;;5071431;28;20045;-57
2023/08/25 06:50:08;;;;;;;61.33;41.58;;;19.30;99.90;;;;;;5069086;28;20045;-57
2023/08/25 06:52:36;;;;;;;61.45;42.97;;;19.40;99.90;;;;;;5069941;28;20044;-57
2023/08/25 06:55:02;;;;;;;61.22;42.30;;;19.50;99.90;;;;;;5067319;28;20096;-57
2023/08/25 06:57:28;;;;;;;61.35;43.13;;;19.50;99.90;;;;;;5064326;28;20127;-57
2023/08/25 06:59:54;;;;;;;56.92;40.55;;;19.50;99.90;;;;;;5062218;28;20087;-57
2023/08/25 07:02:19;;;;;;;58.17;42.03;;;19.60;99.90;;;;;;5058406;28;20049;-57
2023/08/25 07:04:45;;;;;;;55.75;40.65;;;19.60;99.90;;;;;;5065392;28;20033;-56
2023/08/25 07:07:11;;;;;;;55.20;41.88;;;19.70;99.90;;;;;;5067587;28;20059;-56
2023/08/25 07:09:37;;;;;;;55.67;41.10;;;19.70;99.90;;;;;;5063642;28;20041;-57
2023/08/25 07:12:04;;;;;;;58.25;41.80;;;19.80;99.90;;;;;;5069365;28;20040;-57
2023/08/25 07:14:31;;;;;;;55.63;39.95;;;19.90;99.90;;;;;;5063350;28;20044;-56
2023/08/25 07:16:57;;;;;;;51.95;39.42;;;19.90;99.90;;;;;;5061310;28;20049;-58
2023/08/25 07:19:23;;;;;;;49.25;38.42;;;20.00;99.90;;;;;;5064090;28;20037;-57
2023/08/25 07:21:49;;;;;;;49.47;37.78;;;20.10;99.90;;;;;;5072899;28;20108;-58
2023/08/25 07:24:14;;;;;;;47.28;37.47;;;20.20;99.90;;;;;;5065572;28;20045;-57
2023/08/25 07:26:40;;;;;;;43.85;35.53;;;20.50;99.90;;;;;;5068960;28;20902;-57
2023/08/25 07:29:06;;;;;;;42.88;32.22;;;20.70;99.90;;;;;;5062803;28;20033;-57
2023/08/25 07:31:31;;;;;;;34.45;27.13;;;21.10;99.90;;;;;;5068919;28;20110;-57
2023/08/25 07:33:57;;;;;;;34.42;26.65;;;21.40;99.90;;;;;;5073414;28;20048;-56
2023/08/25 07:36:24;;;;;;;33.22;25.23;;;21.60;99.90;;;;;;5065187;28;20048;-57
2023/08/25 07:38:50;;;;;;;28.25;23.25;;;21.70;99.90;;;;;;5063243;28;20055;-57
2023/08/25 07:41:20;;;;;;;29.98;23.92;;;21.80;99.90;;;;;;5067419;28;20045;-56
2023/08/25 07:43:46;;;;;;;27.17;22.30;;;21.90;99.90;;;;;;5061523;28;20041;-56
2023/08/25 07:46:11;;;;;;;28.45;21.65;;;22.10;99.90;;;;;;5066178;28;20041;-57
2023/08/25 07:48:37;;;;;;;26.63;19.90;;;22.10;99.90;;;;;;5067076;28;20090;-57
2023/08/25 07:51:04;;;;;;;26.38;21.55;;;22.10;99.90;;;;;;5075067;28;20123;-57
2023/08/25 07:53:31;;;;;;;24.48;20.45;;;22.00;99.90;;;;;;5073956;28;20501;-57
2023/08/25 07:55:57;;;;;;;23.38;19.02;;;22.00;99.90;;;;;;5075385;28;20044;-56
2023/08/25 07:58:23;;;;;;;25.13;18.98;;;21.90;99.90;;;;;;5072343;28;20049;-57
2023/08/25 08:00:49;;;;;;;23.17;18.08;;;21.80;99.90;;;;;;5073515;28;20083;-57
2023/08/25 08:03:15;;;;;;;24.77;19.40;;;21.80;99.90;;;;;;5073004;28;20055;-56
2023/08/25 08:05:42;;;;;;;27.20;20.13;;;21.80;99.90;;;;;;5068071;28;20053;-58
2023/08/25 08:08:09;;;;;;;23.40;18.55;;;21.70;99.90;;;;;;5074861;28;20045;-57
2023/08/25 08:10:36;;;;;;;25.13;17.98;;;21.70;99.90;;;;;;5071205;28;20045;-57
2023/08/25 08:13:03;;;;;;;25.83;18.35;;;21.70;99.90;;;;;;5064048;28;20037;-57
2023/08/25 08:15:29;;;;;;;21.67;16.15;;;21.70;99.90;;;;;;5080096;28;20056;-57
2023/08/25 08:17:55;;;;;;;18.60;15.10;;;21.70;99.90;;;;;;5068294;28;20040;-56
2023/08/25 08:20:21;;;;;;;20.50;15.00;;;21.60;99.90;;;;;;5069600;28;20040;-57
2023/08/25 08:22:47;;;;;;;24.00;14.88;;;21.60;99.90;;;;;;5063045;28;22109;-56
2023/08/25 08:25:14;;;;;;;22.08;15.52;;;21.60;99.90;;;;;;5066639;28;20044;-56
2023/08/25 08:27:41;;;;;;;22.13;15.35;;;21.60;99.90;;;;;;5064988;28;20041;-57
2023/08/25 08:30:08;;;;;;;25.38;15.90;;;21.50;99.90;;;;;;5067204;28;20075;-57
2023/08/25 08:32:35;;;;;;;22.10;15.85;;;21.50;99.90;;;;;;5063083;28;20037;-55
2023/08/25 08:35:04;;;;;;;21.20;15.88;;;21.40;99.90;;;;;;5065286;28;20032;-56
2023/08/25 08:37:29;;;;;;;24.73;19.50;;;21.40;99.90;;;;;;5074765;28;20025;-56
2023/08/25 08:39:55;;;;;;;24.77;20.20;;;21.40;99.90;;;;;;5068162;28;20036;-56
2023/08/25 08:42:21;;;;;;;25.25;21.73;;;21.40;99.90;;;;;;5071956;28;20048;-56
2023/08/25 08:44:49;;;;;;;28.90;22.08;;;21.40;99.90;;;;;;5060918;28;20037;-56
2023/08/25 08:47:16;;;;;;;26.42;22.05;;;21.40;99.90;;;;;;5065669;28;20049;-56
2023/08/25 08:49:44;;;;;;;31.60;22.60;;;21.30;99.90;;;;;;5067164;28;20132;-55
2023/08/25 08:52:10;;;;;;;25.67;20.27;;;21.30;99.90;;;;;;5066548;28;20531;-56
2023/08/25 08:54:38;;;;;;;27.08;20.05;;;21.30;99.90;;;;;;5074805;28;20040;-57
2023/08/25 08:57:04;;;;;;;26.10;20.45;;;21.40;99.90;;;;;;5074273;28;20041;-57
2023/08/25 08:59:31;;;;;;;24.98;18.50;;;21.40;99.90;;;;;;5073450;28;20594;-57
2023/08/25 09:02:01;;;;;;;29.13;21.23;;;21.40;99.90;;;;;;5072338;28;20053;-56
2023/08/25 09:04:28;;;;;;;31.08;20.85;;;21.40;99.90;;;;;;5069933;28;20040;-56
2023/08/25 09:06:57;;;;;;;26.00;20.13;;;21.40;99.90;;;;;;5061155;28;20049;-55
2023/08/25 09:09:23;;;;;;;33.72;21.65;;;21.40;99.90;;;;;;5063435;28;20084;-57
2023/08/25 09:11:50;;;;;;;29.40;21.15;;;21.40;99.90;;;;;;5067171;28;20475;-55
2023/08/25 09:14:27;;;;;;;27.65;22.00;;;21.30;99.90;;;;;;5062228;28;20045;-57
2023/08/25 09:16:57;;;;;;;30.73;22.90;;;21.30;99.90;;;;;;5068376;28;20157;-56
2023/08/25 09:19:23;;;;;;;27.00;22.15;;;21.30;99.90;;;;;;5066557;28;20045;-55
2023/08/25 09:21:49;;;;;;;28.88;22.00;;;21.30;99.90;;;;;;5067809;28;20048;-55
2023/08/25 09:24:19;;;;;;;31.35;23.05;;;21.30;99.90;;;;;;5070478;28;20051;-55
2023/08/25 09:26:46;;;;;;;32.28;24.55;;;21.40;99.90;;;;;;5060780;28;20037;-56
2023/08/25 09:29:12;;;;;;;37.72;25.23;;;21.40;99.90;;;;;;5074562;28;20055;-55
2023/08/25 09:31:37;;;;;;;36.08;24.90;;;21.40;99.90;;;;;;5067077;28;20084;-56
2023/08/25 09:34:06;;;;;;;36.03;26.15;;;21.40;99.90;;;;;;5063474;28;20100;-55
2023/08/25 09:36:33;;;;;;;34.15;25.00;;;21.40;99.90;;;;;;5061035;28;20075;-56
2023/08/25 09:38:59;;;;;;;36.33;25.30;;;21.40;99.90;;;;;;5065043;28;20218;-58
2023/08/25 09:41:26;;;;;;;32.63;25.40;;;21.50;99.90;;;;;;5069778;28;20076;-56
2023/08/25 09:44:02;;;;;;;35.38;26.17;;;21.50;99.90;;;;;;5063254;28;20044;-56
2023/08/25 09:46:29;;;;;;;37.10;27.00;;;21.60;99.90;;;;;;5062616;28;20055;-56
2023/08/25 09:49:02;;;;;;;38.05;27.15;;;21.60;99.90;;;;;;5075308;28;20071;-57
2023/08/25 09:51:34;;;;;;;37.63;25.90;;;21.60;99.90;;;;;;5069425;28;20104;-56
2023/08/25 09:54:06;;;;;;;31.40;25.52;;;21.60;99.90;;;;;;5061394;28;20049;-56
2023/08/25 09:56:33;;;;;;;39.85;25.33;;;21.60;99.90;;;;;;5067208;28;20032;-57
2023/08/25 09:59:01;;;;;;;32.88;25.00;;;21.60;99.90;;;;;;5070564;28;20059;-56
2023/08/25 10:01:26;;;;;;;28.88;23.13;;;21.60;99.90;;;;;;5071232;28;20040;-57
2023/08/25 10:03:53;;;;;;;32.63;22.77;;;21.60;99.90;;;;;;5064194;28;20127;-57
2023/08/25 10:06:19;;;;;;;32.80;22.92;;;21.60;99.90;;;;;;5060131;28;20037;-57
2023/08/25 10:08:46;;;;;;;34.58;24.85;;;21.60;99.90;;;;;;5065581;28;20037;-56
2023/08/25 10:11:13;;;;;;;36.78;25.40;;;21.60;99.90;;;;;;5063568;28;20065;-56
2023/08/25 10:13:40;;;;;;;27.65;23.13;;;21.60;99.90;;;;;;5058708;28;20119;-57
2023/08/25 10:16:10;;;;;;;34.65;24.42;;;21.70;99.90;;;;;;5063016;28;20128;-58
2023/08/25 10:18:43;;;;;;;33.30;25.33;;;21.70;99.90;;;;;;5061687;28;20040;-56
2023/08/25 10:21:10;;;;;;;32.92;24.92;;;21.80;99.90;;;;;;5069802;28;20091;-56
2023/08/25 10:23:37;;;;;;;32.78;25.38;;;21.80;99.90;;;;;;5063886;28;20041;-57
2023/08/25 10:26:05;;;;;;;32.85;24.83;;;21.80;99.90;;;;;;5069476;28;20060;-57
2023/08/25 10:28:32;;;;;;;29.50;24.55;;;21.80;99.90;;;;;;5065545;28;20041;-56
2023/08/25 10:30:58;;;;;;;29.73;23.92;;;21.80;99.90;;;;;;5060292;28;20033;-56
2023/08/25 10:33:24;;;;;;;33.25;25.42;;;21.80;99.90;;;;;;5061404;28;20051;-57
2023/08/25 10:35:54;;;;;;;31.42;25.48;;;21.80;99.90;;;;;;5069169;28;20056;-56
2023/08/25 10:38:19;;;;;;;30.25;23.92;;;21.70;99.90;;;;;;5063399;28;20526;-56
2023/08/25 10:41:10;;;;;;;34.10;25.60;;;21.70;99.90;;;;;;5063377;28;20101;-56
2023/08/25 10:43:37;;;;;;;29.20;23.70;;;21.60;99.90;;;;;;5067042;28;20495;-56
2023/08/25 10:46:10;;;;;;;33.35;24.13;;;21.60;99.90;;;;;;5064089;28;20070;-56
2023/08/25 10:48:40;;;;;;;33.45;23.80;;;21.60;99.90;;;;;;5068800;28;20048;-57
2023/08/25 10:51:11;;;;;;;28.67;24.55;;;21.70;99.90;;;;;;5069689;28;20048;-56
2023/08/25 10:53:41;;;;;;;32.08;25.25;;;21.70;99.90;;;;;;5066178;28;20067;-56
2023/08/25 10:56:21;;;;;;;32.60;24.70;;;21.70;99.90;;;;;;5067424;28;20041;-56
2023/08/25 10:58:59;;;;;;;30.13;26.08;;;21.70;99.90;;;;;;5071826;28;20041;-56
2023/08/25 11:01:26;;;;;;;30.10;25.13;;;21.80;99.90;;;;;;5067858;28;20582;-56
2023/08/25 11:04:05;;;;;;;30.95;25.45;;;21.80;99.90;;;;;;5072686;28;20041;-56
2023/08/25 11:06:47;;;;;;;30.02;26.75;;;21.80;99.90;;;;;;5062707;28;20055;-56
2023/08/25 11:09:18;;;;;;;32.85;27.52;;;21.80;99.90;;;;;;5061728;28;20086;-56
2023/08/25 11:11:45;;;;;;;36.13;29.65;;;21.80;99.90;;;;;;5068733;28;20485;-56
2023/08/25 11:14:14;;;;;;;32.90;27.42;;;21.70;99.90;;;;;;5066593;28;20056;-56
2023/08/25 11:16:41;;;;;;;29.67;25.98;;;21.70;99.90;;;;;;5073080;28;20037;-56
2023/08/25 11:19:10;;;;;;;30.63;27.13;;;21.70;99.90;;;;;;5068172;28;20056;-56
2023/08/25 11:21:36;;;;;;;31.90;25.92;;;21.60;99.90;;;;;;5070620;28;20051;-56
2023/08/25 11:24:02;;;;;;;30.77;26.27;;;21.60;99.90;;;;;;5067981;28;20044;-55
2023/08/25 11:26:28;;;;;;;30.25;26.35;;;21.60;99.90;;;;;;5062037;28;20048;-56
2023/08/25 11:28:54;;;;;;;32.72;27.83;;;21.70;99.90;;;;;;5060710;28;20037;-56
2023/08/25 11:31:21;;;;;;;33.97;26.23;;;21.70;99.90;;;;;;5063487;28;20504;-56
2023/08/25 11:33:48;;;;;;;30.10;26.40;;;21.70;99.90;;;;;;5067258;28;20477;-56
2023/08/25 11:36:17;;;;;;;32.58;26.67;;;21.70;99.90;;;;;;5070227;28;20082;-57
2023/08/25 11:38:48;;;;;;;31.42;26.77;;;21.70;99.90;;;;;;5066743;28;20045;-56
2023/08/25 11:41:15;;;;;;;29.92;26.73;;;21.70;99.90;;;;;;5065840;28;20037;-56
2023/08/25 11:43:41;;;;;;;29.25;24.92;;;21.70;99.90;;;;;;5057929;28;20041;-56
2023/08/25 11:46:07;;;;;;;31.52;25.88;;;21.70;99.90;;;;;;5067093;28;20037;-56
2023/08/25 11:48:33;;;;;;;27.20;24.05;;;21.70;99.90;;;;;;5056427;28;20102;-56
2023/08/25 11:51:00;;;;;;;26.67;22.83;;;21.70;99.90;;;;;;5059154;28;20044;-56
2023/08/25 11:53:26;;;;;;;24.85;22.15;;;21.80;99.90;;;;;;5061862;28;20120;-57
2023/08/25 11:56:05;;;;;;;24.77;21.75;;;21.70;99.90;;;;;;5062022;28;20531;-56
2023/08/25 11:58:36;;;;;;;27.13;22.13;;;21.80;99.90;;;;;;5062235;28;20614;-55
2023/08/25 12:01:10;;;;;;;29.00;22.42;;;21.80;99.90;;;;;;5058828;28;20045;-56
2023/08/25 12:03:39;;;;;;;27.48;24.02;;;21.80;99.90;;;;;;5058943;28;20047;-56
2023/08/25 12:06:07;;;;;;;27.02;23.42;;;21.90;99.90;;;;;;5058668;28;20576;-56
2023/08/25 12:08:37;;;;;;;27.25;23.35;;;21.90;99.90;;;;;;5063693;28;20033;-57
2023/08/25 12:11:06;;;;;;;30.10;23.30;;;21.90;99.90;;;;;;5061092;28;20049;-56
2023/08/25 12:13:35;;;;;;;27.63;23.05;;;21.90;99.90;;;;;;5062366;28;20049;-56
2023/08/25 12:16:02;;;;;;;29.20;21.98;;;21.90;99.90;;;;;;5061363;28;20083;-57
2023/08/25 12:18:36;;;;;;;26.45;22.95;;;22.00;99.90;;;;;;5061620;28;20110;-56
2023/08/25 12:21:06;;;;;;;24.98;21.30;;;22.00;99.90;;;;;;5069557;28;20040;-56
2023/08/25 12:23:36;;;;;;;27.98;22.08;;;22.00;99.90;;;;;;5070003;28;20523;-56
2023/08/25 12:26:07;;;;;;;27.90;22.38;;;22.10;99.90;;;;;;5068202;28;20049;-56
2023/08/25 12:28:33;;;;;;;25.63;21.95;;;22.10;99.90;;;;;;5070467;28;20085;-56